Time,TemperatureF,DewpointF,PressureIn,WindDirection,WindDirectionDegrees,WindSpeedMPH,WindSpeedGustMPH,Humidity,HourlyPrecipIn,Conditions,Clouds,dailyrainin,SoftwareType,DateUTC
2013-08-12 02:30:00,70.0,62.8,30.06,North,-999,0.0,4.0,78,0.00,,,-99.99,FreeWX 2.04,2013-08-12 06:30:00,
2013-08-12 02:45:00,69.8,62.6,30.06,North,-999,0.0,0.0,78,0.00,,,-99.99,FreeWX 2.04,2013-08-12 06:45:00,
2013-08-12 03:00:00,69.6,62.4,30.06,North,-999,0.0,0.0,78,0.00,,,-99.99,FreeWX 2.04,2013-08-12 07:00:00,
2013-08-12 03:15:00,69.4,62.2,30.06,North,-999,0.0,0.0,78,0.00,,,-99.99,FreeWX 2.04,2013-08-12 07:15:00,
2013-08-12 03:30:00,69.3,62.1,30.06,North,-999,0.0,0.0,78,0.00,,,-99.99,FreeWX 2.04,2013-08-12 07:30:00,
2013-08-12 03:45:00,69.1,61.9,30.06,North,-999,0.0,0.0,78,0.00,,,-99.99,FreeWX 2.04,2013-08-12 07:45:00,
2013-08-12 04:00:00,69.1,61.9,30.06,North,-999,0.0,0.0,78,0.00,,,-99.99,FreeWX 2.04,2013-08-12 08:00:00,
2013-08-12 10:32:00,73.8,65.7,30.06,North,-999,0.0,0.0,76,0.00,,,-99.99,FreeWX 2.04,2013-08-12 14:32:00,
2013-08-12 10:47:00,76.5,68.7,30.06,North,-999,0.0,0.0,77,0.00,,,-99.99,FreeWX 2.04,2013-08-12 14:47:00,
2013-08-12 10:57:00,77.4,68.4,30.06,North,-999,0.0,0.0,74,0.00,,,-99.99,FreeWX 2.04,2013-08-12 14:57:00,
2013-08-12 15:58:00,75.6,59.7,30.00,North,-999,0.0,8.7,58,0.12,,,-99.99,FreeWX 2.04,2013-08-12 19:58:00,
2013-08-12 20:15:00,73.8,60.8,29.94,North,-999,0.0,7.4,64,0.00,,,-99.99,FreeWX 2.04,2013-08-13 00:15:00,
2013-08-12 20:30:00,73.2,60.8,29.94,North,-999,0.0,0.0,65,0.00,,,-99.99,FreeWX 2.04,2013-08-13 00:30:00,
2013-08-12 20:45:00,73.0,61.0,29.94,North,-999,0.0,0.0,66,0.00,,,-99.99,FreeWX 2.04,2013-08-13 00:45:00,
2013-08-12 21:03:00,72.9,61.2,29.94,North,-999,0.0,3.6,67,0.00,,,-99.99,FreeWX 2.04,2013-08-13 01:03:00,
2013-08-12 21:18:00,72.7,61.9,29.94,NNW,346,2.0,5.4,69,0.00,,,-99.99,FreeWX 2.04,2013-08-13 01:18:00,
2013-08-12 21:33:00,72.7,61.9,29.91,North,-999,0.0,4.5,69,0.00,,,-99.99,FreeWX 2.04,2013-08-13 01:33:00,
2013-08-12 21:57:00,72.1,61.9,29.91,North,350,2.0,5.8,70,0.00,,,-99.99,FreeWX 2.04,2013-08-13 01:57:00,
2013-08-12 22:12:00,72.1,61.3,29.91,North,-999,0.0,3.6,69,0.00,,,-99.99,FreeWX 2.04,2013-08-13 02:12:00,
2013-08-12 22:28:00,72.0,61.2,29.91,North,-999,0.0,3.1,69,0.00,,,-99.99,FreeWX 2.04,2013-08-13 02:28:00,
2013-08-12 22:46:00,71.4,60.6,29.91,North,-999,0.0,0.0,69,0.00,,,-99.99,FreeWX 2.04,2013-08-13 02:46:00,
2013-08-12 23:01:00,71.6,60.8,29.91,North,-999,0.0,0.0,69,0.00,,,-99.99,FreeWX 2.04,2013-08-13 03:01:00,
2013-08-12 23:16:00,71.6,61.3,29.91,North,-999,0.0,0.0,70,0.00,,,-99.99,FreeWX 2.04,2013-08-13 03:16:00,
2013-08-12 23:31:00,71.6,61.3,29.91,North,-999,0.0,0.0,70,0.00,,,-99.99,FreeWX 2.04,2013-08-13 03:31:00,
2013-08-12 23:56:00,71.4,61.5,29.91,North,-999,0.0,0.0,71,0.04,,,-99.99,FreeWX 2.04,2013-08-13 03:56:00,